sensor_id;sensor_type;location;lat;lon;timestamp;temperature;humidity
51215;DHT22;63849;47.546;19.254;2022-11-18T00:01:15;7.40;89.10
51215;DHT22;63849;47.546;19.254;2022-11-18T00:03:41;7.30;89.00
51215;DHT22;63849;47.546;19.254;2022-11-18T00:06:11;7.20;89.10
51215;DHT22;63849;47.546;19.254;2022-11-18T00:08:37;7.30;89.40
51215;DHT22;63849;47.546;19.254;2022-11-18T00:11:10;7.40;89.40
51215;DHT22;63849;47.546;19.254;2022-11-18T00:13:37;7.50;89.20
51215;DHT22;63849;47.546;19.254;2022-11-18T00:16:22;7.60;89.00
51215;DHT22;63849;47.546;19.254;2022-11-18T00:18:48;7.60;88.90
51215;DHT22;63849;47.546;19.254;2022-11-18T00:21:14;7.50;88.70
51215;DHT22;63849;47.546;19.254;2022-11-18T00:23:40;7.40;88.60
51215;DHT22;63849;47.546;19.254;2022-11-18T00:26:09;7.30;88.90
51215;DHT22;63849;47.546;19.254;2022-11-18T00:28:35;7.30;89.10
51215;DHT22;63849;47.546;19.254;2022-11-18T00:31:19;7.40;89.30
51215;DHT22;63849;47.546;19.254;2022-11-18T00:33:45;7.30;88.90
51215;DHT22;63849;47.546;19.254;2022-11-18T00:36:11;7.30;88.70
51215;DHT22;63849;47.546;19.254;2022-11-18T00:38:38;7.20;88.50
51215;DHT22;63849;47.546;19.254;2022-11-18T00:41:06;7.20;88.60
51215;DHT22;63849;47.546;19.254;2022-11-18T00:43:33;7.20;88.80
51215;DHT22;63849;47.546;19.254;2022-11-18T00:46:00;7.10;88.60
51215;DHT22;63849;47.546;19.254;2022-11-18T00:48:26;7.00;88.60
51215;DHT22;63849;47.546;19.254;2022-11-18T00:50:54;6.90;88.70
51215;DHT22;63849;47.546;19.254;2022-11-18T00:53:21;7.00;88.80
51215;DHT22;63849;47.546;19.254;2022-11-18T00:55:48;6.90;88.80
51215;DHT22;63849;47.546;19.254;2022-11-18T00:58:13;6.90;88.60
51215;DHT22;63849;47.546;19.254;2022-11-18T01:00:44;6.90;88.40
51215;DHT22;63849;47.546;19.254;2022-11-18T01:03:11;6.80;88.50
51215;DHT22;63849;47.546;19.254;2022-11-18T01:05:37;6.80;89.00
51215;DHT22;63849;47.546;19.254;2022-11-18T01:08:07;6.70;89.20
51215;DHT22;63849;47.546;19.254;2022-11-18T01:10:34;6.80;89.50
51215;DHT22;63849;47.546;19.254;2022-11-18T01:13:01;6.80;89.30
51215;DHT22;63849;47.546;19.254;2022-11-18T01:15:53;6.70;88.90
51215;DHT22;63849;47.546;19.254;2022-11-18T01:18:22;6.80;88.80
51215;DHT22;63849;47.546;19.254;2022-11-18T01:20:49;6.80;88.50
51215;DHT22;63849;47.546;19.254;2022-11-18T01:23:15;6.80;88.40
51215;DHT22;63849;47.546;19.254;2022-11-18T01:25:43;6.80;88.20
51215;DHT22;63849;47.546;19.254;2022-11-18T01:28:10;6.70;88.10
51215;DHT22;63849;47.546;19.254;2022-11-18T01:30:38;6.70;88.10
51215;DHT22;63849;47.546;19.254;2022-11-18T01:33:05;6.80;88.20
51215;DHT22;63849;47.546;19.254;2022-11-18T01:35:38;6.80;88.60
51215;DHT22;63849;47.546;19.254;2022-11-18T01:38:05;6.80;89.50
51215;DHT22;63849;47.546;19.254;2022-11-18T01:40:32;6.90;89.70
51215;DHT22;63849;47.546;19.254;2022-11-18T01:42:58;7.00;90.00
51215;DHT22;63849;47.546;19.254;2022-11-18T01:50:34;7.30;90.00
51215;DHT22;63849;47.546;19.254;2022-11-18T01:53:06;7.30;89.80
51215;DHT22;63849;47.546;19.254;2022-11-18T01:55:34;7.40;89.80
51215;DHT22;63849;47.546;19.254;2022-11-18T01:58:22;7.40;89.90
51215;DHT22;63849;47.546;19.254;2022-11-18T02:00:48;7.40;89.80
51215;DHT22;63849;47.546;19.254;2022-11-18T02:03:15;7.40;89.70
51215;DHT22;63849;47.546;19.254;2022-11-18T02:05:43;7.50;89.70
51215;DHT22;63849;47.546;19.254;2022-11-18T02:08:11;7.50;89.40
51215;DHT22;63849;47.546;19.254;2022-11-18T02:10:37;7.50;89.70
51215;DHT22;63849;47.546;19.254;2022-11-18T02:13:03;7.60;89.60
51215;DHT22;63849;47.546;19.254;2022-11-18T02:18:20;7.60;89.40
51215;DHT22;63849;47.546;19.254;2022-11-18T02:20:48;7.60;89.50
51215;DHT22;63849;47.546;19.254;2022-11-18T02:23:37;7.60;89.50
51215;DHT22;63849;47.546;19.254;2022-11-18T02:29:02;7.60;89.50
51215;DHT22;63849;47.546;19.254;2022-11-18T02:31:44;7.60;89.50
51215;DHT22;63849;47.546;19.254;2022-11-18T02:34:20;7.70;89.40
51215;DHT22;63849;47.546;19.254;2022-11-18T02:40:12;7.80;89.20
51215;DHT22;63849;47.546;19.254;2022-11-18T02:42:41;7.80;89.20
51215;DHT22;63849;47.546;19.254;2022-11-18T02:45:14;7.80;89.30
51215;DHT22;63849;47.546;19.254;2022-11-18T02:47:41;7.80;89.20
51215;DHT22;63849;47.546;19.254;2022-11-18T02:50:11;7.80;89.40
51215;DHT22;63849;47.546;19.254;2022-11-18T02:52:40;7.80;89.50
51215;DHT22;63849;47.546;19.254;2022-11-18T02:55:08;7.80;89.40
51215;DHT22;63849;47.546;19.254;2022-11-18T02:57:36;7.60;89.60
51215;DHT22;63849;47.546;19.254;2022-11-18T03:00:04;7.60;89.80
51215;DHT22;63849;47.546;19.254;2022-11-18T03:02:45;7.50;89.90
51215;DHT22;63849;47.546;19.254;2022-11-18T03:07:55;7.50;90.00
51215;DHT22;63849;47.546;19.254;2022-11-18T03:10:22;7.50;90.10
51215;DHT22;63849;47.546;19.254;2022-11-18T03:13:23;7.50;90.10
51215;DHT22;63849;47.546;19.254;2022-11-18T03:16:13;7.60;90.20
51215;DHT22;63849;47.546;19.254;2022-11-18T03:19:06;7.50;90.00
51215;DHT22;63849;47.546;19.254;2022-11-18T03:21:40;7.40;90.30
51215;DHT22;63849;47.546;19.254;2022-11-18T03:24:22;7.40;90.40
51215;DHT22;63849;47.546;19.254;2022-11-18T03:26:52;7.40;90.40
51215;DHT22;63849;47.546;19.254;2022-11-18T03:29:28;7.40;90.50
51215;DHT22;63849;47.546;19.254;2022-11-18T03:32:05;7.40;90.70
51215;DHT22;63849;47.546;19.254;2022-11-18T03:34:56;7.50;90.60
51215;DHT22;63849;47.546;19.254;2022-11-18T03:37:25;7.40;90.70
51215;DHT22;63849;47.546;19.254;2022-11-18T03:39:56;7.40;90.90
51215;DHT22;63849;47.546;19.254;2022-11-18T03:42:28;7.50;90.80
51215;DHT22;63849;47.546;19.254;2022-11-18T03:45:01;7.60;90.60
51215;DHT22;63849;47.546;19.254;2022-11-18T03:47:33;7.50;90.50
51215;DHT22;63849;47.546;19.254;2022-11-18T03:50:10;7.60;90.70
51215;DHT22;63849;47.546;19.254;2022-11-18T03:52:38;7.50;90.50
51215;DHT22;63849;47.546;19.254;2022-11-18T03:55:10;7.50;90.50
51215;DHT22;63849;47.546;19.254;2022-11-18T04:00:10;7.50;90.20
51215;DHT22;63849;47.546;19.254;2022-11-18T04:02:37;7.60;90.10
51215;DHT22;63849;47.546;19.254;2022-11-18T04:05:06;7.60;90.20
51215;DHT22;63849;47.546;19.254;2022-11-18T04:08:00;7.60;90.30
51215;DHT22;63849;47.546;19.254;2022-11-18T04:11:53;7.60;90.00
51215;DHT22;63849;47.546;19.254;2022-11-18T04:14:06;7.60;90.10
51215;DHT22;63849;47.546;19.254;2022-11-18T04:16:41;7.70;90.10
51215;DHT22;63849;47.546;19.254;2022-11-18T04:19:07;7.80;89.80
51215;DHT22;63849;47.546;19.254;2022-11-18T04:21:33;7.80;89.60
51215;DHT22;63849;47.546;19.254;2022-11-18T04:23:58;7.80;89.40
51215;DHT22;63849;47.546;19.254;2022-11-18T04:26:24;7.70;89.30
51215;DHT22;63849;47.546;19.254;2022-11-18T04:28:50;7.70;89.50
51215;DHT22;63849;47.546;19.254;2022-11-18T04:31:16;7.60;89.50
51215;DHT22;63849;47.546;19.254;2022-11-18T04:33:42;7.50;89.20
51215;DHT22;63849;47.546;19.254;2022-11-18T04:36:08;7.50;89.40
51215;DHT22;63849;47.546;19.254;2022-11-18T04:38:34;7.50;89.30
51215;DHT22;63849;47.546;19.254;2022-11-18T04:40:59;7.60;89.40
51215;DHT22;63849;47.546;19.254;2022-11-18T04:43:25;7.40;89.30
51215;DHT22;63849;47.546;19.254;2022-11-18T04:45:51;7.40;89.50
51215;DHT22;63849;47.546;19.254;2022-11-18T04:48:17;7.50;89.50
51215;DHT22;63849;47.546;19.254;2022-11-18T04:50:43;7.50;89.40
51215;DHT22;63849;47.546;19.254;2022-11-18T04:53:09;7.60;89.40
51215;DHT22;63849;47.546;19.254;2022-11-18T04:55:35;7.40;89.70
51215;DHT22;63849;47.546;19.254;2022-11-18T04:58:01;7.40;89.70
51215;DHT22;63849;47.546;19.254;2022-11-18T05:00:27;7.50;89.70
51215;DHT22;63849;47.546;19.254;2022-11-18T05:02:53;7.40;89.60
51215;DHT22;63849;47.546;19.254;2022-11-18T05:05:19;7.50;89.50
51215;DHT22;63849;47.546;19.254;2022-11-18T05:07:44;7.50;89.30
51215;DHT22;63849;47.546;19.254;2022-11-18T05:10:10;7.50;89.20
51215;DHT22;63849;47.546;19.254;2022-11-18T05:12:36;7.40;89.20
51215;DHT22;63849;47.546;19.254;2022-11-18T05:15:19;7.50;89.20
51215;DHT22;63849;47.546;19.254;2022-11-18T05:17:47;7.50;89.20
51215;DHT22;63849;47.546;19.254;2022-11-18T05:20:13;7.50;89.20
51215;DHT22;63849;47.546;19.254;2022-11-18T05:22:39;7.60;89.20
51215;DHT22;63849;47.546;19.254;2022-11-18T05:25:05;7.50;89.10
51215;DHT22;63849;47.546;19.254;2022-11-18T05:27:31;7.60;89.00
51215;DHT22;63849;47.546;19.254;2022-11-18T05:29:57;7.60;89.00
51215;DHT22;63849;47.546;19.254;2022-11-18T05:32:23;7.60;88.90
51215;DHT22;63849;47.546;19.254;2022-11-18T05:34:49;7.50;89.00
51215;DHT22;63849;47.546;19.254;2022-11-18T05:37:15;7.50;88.90
51215;DHT22;63849;47.546;19.254;2022-11-18T05:39:41;7.50;88.90
51215;DHT22;63849;47.546;19.254;2022-11-18T05:42:07;7.40;89.00
51215;DHT22;63849;47.546;19.254;2022-11-18T05:44:51;7.40;89.00
51215;DHT22;63849;47.546;19.254;2022-11-18T05:47:17;7.50;89.00
51215;DHT22;63849;47.546;19.254;2022-11-18T05:49:43;7.50;88.90
51215;DHT22;63849;47.546;19.254;2022-11-18T05:52:09;7.40;89.00
51215;DHT22;63849;47.546;19.254;2022-11-18T05:54:38;7.50;89.10
51215;DHT22;63849;47.546;19.254;2022-11-18T05:57:06;7.40;89.00
51215;DHT22;63849;47.546;19.254;2022-11-18T05:59:32;7.40;89.10
51215;DHT22;63849;47.546;19.254;2022-11-18T06:02:07;7.40;89.00
51215;DHT22;63849;47.546;19.254;2022-11-18T06:04:44;7.50;89.10
51215;DHT22;63849;47.546;19.254;2022-11-18T06:07:15;7.50;89.00
51215;DHT22;63849;47.546;19.254;2022-11-18T06:09:45;7.50;89.00
51215;DHT22;63849;47.546;19.254;2022-11-18T06:12:15;7.50;88.90
51215;DHT22;63849;47.546;19.254;2022-11-18T06:15:26;7.40;88.80
51215;DHT22;63849;47.546;19.254;2022-11-18T06:17:41;7.50;88.90
51215;DHT22;63849;47.546;19.254;2022-11-18T06:20:08;7.50;88.90
51215;DHT22;63849;47.546;19.254;2022-11-18T06:22:34;7.40;89.00
51215;DHT22;63849;47.546;19.254;2022-11-18T06:25:01;7.60;88.90
51215;DHT22;63849;47.546;19.254;2022-11-18T06:27:28;7.60;88.90
51215;DHT22;63849;47.546;19.254;2022-11-18T06:29:54;7.60;88.90
51215;DHT22;63849;47.546;19.254;2022-11-18T06:32:20;7.60;88.70
51215;DHT22;63849;47.546;19.254;2022-11-18T06:34:45;7.60;88.80
51215;DHT22;63849;47.546;19.254;2022-11-18T06:37:16;7.50;88.80
51215;DHT22;63849;47.546;19.254;2022-11-18T06:39:42;7.50;88.80
51215;DHT22;63849;47.546;19.254;2022-11-18T06:42:08;7.60;89.00
51215;DHT22;63849;47.546;19.254;2022-11-18T06:44:34;7.70;89.00
51215;DHT22;63849;47.546;19.254;2022-11-18T06:47:00;7.70;88.80
51215;DHT22;63849;47.546;19.254;2022-11-18T06:49:27;7.60;88.40
51215;DHT22;63849;47.546;19.254;2022-11-18T06:51:55;7.70;88.50
51215;DHT22;63849;47.546;19.254;2022-11-18T06:54:21;7.70;88.50
51215;DHT22;63849;47.546;19.254;2022-11-18T06:56:47;7.70;88.50
51215;DHT22;63849;47.546;19.254;2022-11-18T06:59:13;7.70;88.40
51215;DHT22;63849;47.546;19.254;2022-11-18T07:01:39;7.70;88.30
51215;DHT22;63849;47.546;19.254;2022-11-18T07:04:07;7.70;88.40
51215;DHT22;63849;47.546;19.254;2022-11-18T07:06:34;7.80;88.40
51215;DHT22;63849;47.546;19.254;2022-11-18T07:09:01;7.80;88.30
51215;DHT22;63849;47.546;19.254;2022-11-18T07:11:28;7.80;88.20
51215;DHT22;63849;47.546;19.254;2022-11-18T07:13:54;7.80;88.20
51215;DHT22;63849;47.546;19.254;2022-11-18T07:16:22;7.80;88.20
51215;DHT22;63849;47.546;19.254;2022-11-18T07:18:49;7.80;88.20
51215;DHT22;63849;47.546;19.254;2022-11-18T07:21:17;7.70;88.30
51215;DHT22;63849;47.546;19.254;2022-11-18T07:23:43;7.70;88.50
51215;DHT22;63849;47.546;19.254;2022-11-18T07:26:09;7.70;88.50
51215;DHT22;63849;47.546;19.254;2022-11-18T07:28:35;7.80;88.50
51215;DHT22;63849;47.546;19.254;2022-11-18T07:31:08;7.70;88.70
51215;DHT22;63849;47.546;19.254;2022-11-18T07:33:36;7.80;88.70
51215;DHT22;63849;47.546;19.254;2022-11-18T07:36:05;7.90;88.50
51215;DHT22;63849;47.546;19.254;2022-11-18T07:38:31;7.90;88.40
51215;DHT22;63849;47.546;19.254;2022-11-18T07:41:24;8.00;88.30
51215;DHT22;63849;47.546;19.254;2022-11-18T07:43:52;8.10;88.00
51215;DHT22;63849;47.546;19.254;2022-11-18T07:46:24;8.10;87.80
51215;DHT22;63849;47.546;19.254;2022-11-18T07:48:52;8.20;87.70
51215;DHT22;63849;47.546;19.254;2022-11-18T07:51:21;8.10;87.70
51215;DHT22;63849;47.546;19.254;2022-11-18T07:53:47;8.10;87.50
51215;DHT22;63849;47.546;19.254;2022-11-18T07:56:14;8.10;87.80
51215;DHT22;63849;47.546;19.254;2022-11-18T07:58:40;8.20;87.90
51215;DHT22;63849;47.546;19.254;2022-11-18T08:01:11;8.00;87.60
51215;DHT22;63849;47.546;19.254;2022-11-18T08:03:38;8.10;87.60
51215;DHT22;63849;47.546;19.254;2022-11-18T08:06:06;8.00;87.60
51215;DHT22;63849;47.546;19.254;2022-11-18T08:08:32;8.10;87.80
51215;DHT22;63849;47.546;19.254;2022-11-18T08:11:00;8.20;87.70
51215;DHT22;63849;47.546;19.254;2022-11-18T08:13:26;8.20;87.40
51215;DHT22;63849;47.546;19.254;2022-11-18T08:15:53;8.10;87.60
51215;DHT22;63849;47.546;19.254;2022-11-18T08:18:19;8.10;87.50
51215;DHT22;63849;47.546;19.254;2022-11-18T08:20:45;8.10;87.40
51215;DHT22;63849;47.546;19.254;2022-11-18T08:23:11;8.00;87.50
51215;DHT22;63849;47.546;19.254;2022-11-18T08:25:37;8.10;87.90
51215;DHT22;63849;47.546;19.254;2022-11-18T08:28:03;8.10;87.50
51215;DHT22;63849;47.546;19.254;2022-11-18T08:30:29;8.10;87.40
51215;DHT22;63849;47.546;19.254;2022-11-18T08:32:55;8.10;88.00
51215;DHT22;63849;47.546;19.254;2022-11-18T08:35:21;8.10;87.70
51215;DHT22;63849;47.546;19.254;2022-11-18T08:37:46;8.10;87.80
51215;DHT22;63849;47.546;19.254;2022-11-18T08:40:12;8.20;87.70
51215;DHT22;63849;47.546;19.254;2022-11-18T08:42:38;8.10;87.80
51215;DHT22;63849;47.546;19.254;2022-11-18T08:45:05;8.00;87.70
51215;DHT22;63849;47.546;19.254;2022-11-18T08:47:33;8.10;87.90
51215;DHT22;63849;47.546;19.254;2022-11-18T08:49:59;8.10;87.70
51215;DHT22;63849;47.546;19.254;2022-11-18T08:52:25;8.00;87.60
51215;DHT22;63849;47.546;19.254;2022-11-18T08:54:50;7.90;87.80
51215;DHT22;63849;47.546;19.254;2022-11-18T08:57:16;7.80;87.80
51215;DHT22;63849;47.546;19.254;2022-11-18T08:59:42;7.80;88.00
51215;DHT22;63849;47.546;19.254;2022-11-18T09:02:19;7.80;88.00
51215;DHT22;63849;47.546;19.254;2022-11-18T09:04:49;7.70;88.20
51215;DHT22;63849;47.546;19.254;2022-11-18T09:07:16;7.80;88.30
51215;DHT22;63849;47.546;19.254;2022-11-18T09:09:42;7.80;88.10
51215;DHT22;63849;47.546;19.254;2022-11-18T09:12:08;7.80;88.20
51215;DHT22;63849;47.546;19.254;2022-11-18T09:14:34;7.80;87.90
51215;DHT22;63849;47.546;19.254;2022-11-18T09:17:00;7.80;88.20
51215;DHT22;63849;47.546;19.254;2022-11-18T09:19:26;7.80;88.30
51215;DHT22;63849;47.546;19.254;2022-11-18T09:21:52;7.80;88.50
51215;DHT22;63849;47.546;19.254;2022-11-18T09:24:18;7.80;88.60
51215;DHT22;63849;47.546;19.254;2022-11-18T09:26:44;7.80;88.60
51215;DHT22;63849;47.546;19.254;2022-11-18T09:29:10;7.80;88.70
51215;DHT22;63849;47.546;19.254;2022-11-18T09:31:36;7.80;88.80
51215;DHT22;63849;47.546;19.254;2022-11-18T09:34:02;7.80;88.80
51215;DHT22;63849;47.546;19.254;2022-11-18T09:36:27;7.80;89.00
51215;DHT22;63849;47.546;19.254;2022-11-18T09:38:53;7.70;89.20
51215;DHT22;63849;47.546;19.254;2022-11-18T09:44:35;7.70;88.80
51215;DHT22;63849;47.546;19.254;2022-11-18T09:47:08;7.70;89.00
51215;DHT22;63849;47.546;19.254;2022-11-18T09:49:39;7.70;88.80
51215;DHT22;63849;47.546;19.254;2022-11-18T09:52:14;7.70;88.80
51215;DHT22;63849;47.546;19.254;2022-11-18T09:54:41;7.80;88.90
51215;DHT22;63849;47.546;19.254;2022-11-18T09:57:20;7.60;88.90
51215;DHT22;63849;47.546;19.254;2022-11-18T09:59:47;7.70;89.30
51215;DHT22;63849;47.546;19.254;2022-11-18T10:04:38;7.90;88.70
51215;DHT22;63849;47.546;19.254;2022-11-18T10:07:35;7.90;88.60
51215;DHT22;63849;47.546;19.254;2022-11-18T10:10:14;8.00;88.40
51215;DHT22;63849;47.546;19.254;2022-11-18T10:12:48;7.90;88.30
51215;DHT22;63849;47.546;19.254;2022-11-18T10:20:50;7.80;88.10
51215;DHT22;63849;47.546;19.254;2022-11-18T10:23:28;7.70;88.50
51215;DHT22;63849;47.546;19.254;2022-11-18T10:25:56;7.70;88.50
51215;DHT22;63849;47.546;19.254;2022-11-18T10:28:25;7.60;88.30
51215;DHT22;63849;47.546;19.254;2022-11-18T10:31:03;7.70;88.50
51215;DHT22;63849;47.546;19.254;2022-11-18T10:33:29;7.80;88.50
51215;DHT22;63849;47.546;19.254;2022-11-18T10:38:43;7.70;88.50
51215;DHT22;63849;47.546;19.254;2022-11-18T10:41:12;7.80;88.20
51215;DHT22;63849;47.546;19.254;2022-11-18T10:43:50;7.80;88.10
51215;DHT22;63849;47.546;19.254;2022-11-18T10:46:28;7.70;88.00
51215;DHT22;63849;47.546;19.254;2022-11-18T10:51:47;7.80;88.20
51215;DHT22;63849;47.546;19.254;2022-11-18T10:54:28;7.80;88.20
51215;DHT22;63849;47.546;19.254;2022-11-18T10:57:05;7.90;88.10
51215;DHT22;63849;47.546;19.254;2022-11-18T10:59:46;7.80;88.00
51215;DHT22;63849;47.546;19.254;2022-11-18T11:02:28;7.80;88.40
51215;DHT22;63849;47.546;19.254;2022-11-18T11:04:56;7.80;87.80
51215;DHT22;63849;47.546;19.254;2022-11-18T11:07:29;7.60;88.30
51215;DHT22;63849;47.546;19.254;2022-11-18T11:12:54;7.50;88.30
51215;DHT22;63849;47.546;19.254;2022-11-18T11:15:23;7.40;88.20
51215;DHT22;63849;47.546;19.254;2022-11-18T11:18:00;7.50;88.10
51215;DHT22;63849;47.546;19.254;2022-11-18T11:20:45;7.30;88.00
51215;DHT22;63849;47.546;19.254;2022-11-18T11:23:12;7.30;88.20
51215;DHT22;63849;47.546;19.254;2022-11-18T11:25:53;7.30;88.40
51215;DHT22;63849;47.546;19.254;2022-11-18T11:28:37;7.30;88.40
51215;DHT22;63849;47.546;19.254;2022-11-18T11:31:25;7.10;88.50
51215;DHT22;63849;47.546;19.254;2022-11-18T11:36:40;7.20;88.60
51215;DHT22;63849;47.546;19.254;2022-11-18T11:52:48;7.10;89.20
51215;DHT22;63849;47.546;19.254;2022-11-18T12:01:21;7.10;89.90
51215;DHT22;63849;47.546;19.254;2022-11-18T12:03:58;7.10;89.90
51215;DHT22;63849;47.546;19.254;2022-11-18T12:06:29;7.20;90.00
51215;DHT22;63849;47.546;19.254;2022-11-18T12:09:08;7.20;89.80
51215;DHT22;63849;47.546;19.254;2022-11-18T12:11:54;7.30;89.90
51215;DHT22;63849;47.546;19.254;2022-11-18T12:16:56;7.20;89.80
51215;DHT22;63849;47.546;19.254;2022-11-18T12:19:24;7.20;90.00
51215;DHT22;63849;47.546;19.254;2022-11-18T12:21:52;7.10;90.10
51215;DHT22;63849;47.546;19.254;2022-11-18T12:26:59;7.00;90.60
51215;DHT22;63849;47.546;19.254;2022-11-18T12:29:35;7.00;90.20
51215;DHT22;63849;47.546;19.254;2022-11-18T12:32:02;7.00;90.30
51215;DHT22;63849;47.546;19.254;2022-11-18T12:34:31;7.00;90.30
51215;DHT22;63849;47.546;19.254;2022-11-18T12:42:59;6.80;90.50
51215;DHT22;63849;47.546;19.254;2022-11-18T12:45:51;6.80;90.90
51215;DHT22;63849;47.546;19.254;2022-11-18T12:48:32;6.90;90.90
51215;DHT22;63849;47.546;19.254;2022-11-18T12:53:50;6.90;90.70
51215;DHT22;63849;47.546;19.254;2022-11-18T12:58:56;6.90;90.30
51215;DHT22;63849;47.546;19.254;2022-11-18T13:01:24;6.90;90.60
51215;DHT22;63849;47.546;19.254;2022-11-18T13:03:51;6.80;90.50
51215;DHT22;63849;47.546;19.254;2022-11-18T13:06:31;6.80;90.20
51215;DHT22;63849;47.546;19.254;2022-11-18T13:09:00;6.90;90.80
51215;DHT22;63849;47.546;19.254;2022-11-18T13:11:28;6.90;90.60
51215;DHT22;63849;47.546;19.254;2022-11-18T13:14:33;6.90;90.70
51215;DHT22;63849;47.546;19.254;2022-11-18T13:17:35;6.90;90.40
51215;DHT22;63849;47.546;19.254;2022-11-18T13:23:23;7.00;90.30
51215;DHT22;63849;47.546;19.254;2022-11-18T13:26:11;7.10;90.20
51215;DHT22;63849;47.546;19.254;2022-11-18T13:31:19;6.80;90.40
51215;DHT22;63849;47.546;19.254;2022-11-18T13:33:46;6.90;90.90
51215;DHT22;63849;47.546;19.254;2022-11-18T13:36:23;6.90;90.40
51215;DHT22;63849;47.546;19.254;2022-11-18T13:39:01;6.90;90.50
51215;DHT22;63849;47.546;19.254;2022-11-18T13:41:29;6.90;90.60
51215;DHT22;63849;47.546;19.254;2022-11-18T13:44:22;7.00;90.30
51215;DHT22;63849;47.546;19.254;2022-11-18T13:49:38;7.00;90.30
51215;DHT22;63849;47.546;19.254;2022-11-18T13:52:11;7.00;90.20
51215;DHT22;63849;47.546;19.254;2022-11-18T13:54:37;7.00;90.20
51215;DHT22;63849;47.546;19.254;2022-11-18T13:57:03;7.10;90.30
51215;DHT22;63849;47.546;19.254;2022-11-18T13:59:29;7.20;90.50
51215;DHT22;63849;47.546;19.254;2022-11-18T14:01:58;7.20;90.60
51215;DHT22;63849;47.546;19.254;2022-11-18T14:04:29;7.20;90.50
51215;DHT22;63849;47.546;19.254;2022-11-18T14:10:07;7.30;90.50
51215;DHT22;63849;47.546;19.254;2022-11-18T14:12:34;7.30;90.40
51215;DHT22;63849;47.546;19.254;2022-11-18T14:15:33;7.20;89.90
51215;DHT22;63849;47.546;19.254;2022-11-18T14:18:00;7.30;89.60
51215;DHT22;63849;47.546;19.254;2022-11-18T14:20:28;7.30;89.60
51215;DHT22;63849;47.546;19.254;2022-11-18T14:23:02;7.30;89.70
51215;DHT22;63849;47.546;19.254;2022-11-18T14:25:34;7.30;89.90
51215;DHT22;63849;47.546;19.254;2022-11-18T14:30:54;7.30;89.90
51215;DHT22;63849;47.546;19.254;2022-11-18T14:33:22;7.30;89.80
51215;DHT22;63849;47.546;19.254;2022-11-18T14:36:09;7.40;90.00
51215;DHT22;63849;47.546;19.254;2022-11-18T14:38:46;7.30;89.70
51215;DHT22;63849;47.546;19.254;2022-11-18T14:41:14;7.40;90.00
51215;DHT22;63849;47.546;19.254;2022-11-18T14:43:41;7.30;89.70
51215;DHT22;63849;47.546;19.254;2022-11-18T14:46:16;7.30;89.80
51215;DHT22;63849;47.546;19.254;2022-11-18T14:48:43;7.30;90.10
51215;DHT22;63849;47.546;19.254;2022-11-18T14:51:13;7.20;90.10
51215;DHT22;63849;47.546;19.254;2022-11-18T14:53:40;7.30;90.10
51215;DHT22;63849;47.546;19.254;2022-11-18T14:58:43;7.20;90.40
51215;DHT22;63849;47.546;19.254;2022-11-18T15:01:11;7.30;90.10
51215;DHT22;63849;47.546;19.254;2022-11-18T15:03:37;7.30;89.90
51215;DHT22;63849;47.546;19.254;2022-11-18T15:06:03;7.30;89.90
51215;DHT22;63849;47.546;19.254;2022-11-18T15:08:30;7.30;90.10
51215;DHT22;63849;47.546;19.254;2022-11-18T15:10:56;7.30;90.00
51215;DHT22;63849;47.546;19.254;2022-11-18T15:13:22;7.20;90.10
51215;DHT22;63849;47.546;19.254;2022-11-18T15:15:48;7.30;89.90
51215;DHT22;63849;47.546;19.254;2022-11-18T15:18:13;7.20;89.90
51215;DHT22;63849;47.546;19.254;2022-11-18T15:20:39;7.20;90.20
51215;DHT22;63849;47.546;19.254;2022-11-18T15:23:05;7.20;90.30
51215;DHT22;63849;47.546;19.254;2022-11-18T15:25:30;7.20;90.30
51215;DHT22;63849;47.546;19.254;2022-11-18T15:27:57;7.30;90.40
51215;DHT22;63849;47.546;19.254;2022-11-18T15:30:23;7.30;90.40
51215;DHT22;63849;47.546;19.254;2022-11-18T15:32:49;7.30;90.20
51215;DHT22;63849;47.546;19.254;2022-11-18T15:35:14;7.30;90.20
51215;DHT22;63849;47.546;19.254;2022-11-18T15:37:40;7.30;90.10
51215;DHT22;63849;47.546;19.254;2022-11-18T15:40:06;7.30;90.00
51215;DHT22;63849;47.546;19.254;2022-11-18T15:42:32;7.40;89.80
51215;DHT22;63849;47.546;19.254;2022-11-18T15:44:58;7.40;89.70
51215;DHT22;63849;47.546;19.254;2022-11-18T15:47:24;7.40;90.10
51215;DHT22;63849;47.546;19.254;2022-11-18T15:49:49;7.40;90.10
51215;DHT22;63849;47.546;19.254;2022-11-18T15:52:15;7.40;89.80
51215;DHT22;63849;47.546;19.254;2022-11-18T15:54:41;7.40;89.90
51215;DHT22;63849;47.546;19.254;2022-11-18T15:57:07;7.50;90.00
51215;DHT22;63849;47.546;19.254;2022-11-18T15:59:32;7.50;90.00
51215;DHT22;63849;47.546;19.254;2022-11-18T16:01:58;7.50;90.10
51215;DHT22;63849;47.546;19.254;2022-11-18T16:04:24;7.50;90.00
51215;DHT22;63849;47.546;19.254;2022-11-18T16:06:50;7.50;90.10
51215;DHT22;63849;47.546;19.254;2022-11-18T16:09:16;7.40;90.40
51215;DHT22;63849;47.546;19.254;2022-11-18T16:11:42;7.40;90.20
51215;DHT22;63849;47.546;19.254;2022-11-18T16:14:26;7.40;90.50
51215;DHT22;63849;47.546;19.254;2022-11-18T16:16:54;7.50;90.60
51215;DHT22;63849;47.546;19.254;2022-11-18T16:19:22;7.50;90.50
51215;DHT22;63849;47.546;19.254;2022-11-18T16:21:51;7.50;90.40
51215;DHT22;63849;47.546;19.254;2022-11-18T16:24:23;7.50;90.50
51215;DHT22;63849;47.546;19.254;2022-11-18T16:26:50;7.50;90.50
51215;DHT22;63849;47.546;19.254;2022-11-18T16:29:16;7.50;90.40
51215;DHT22;63849;47.546;19.254;2022-11-18T16:31:44;7.50;90.40
51215;DHT22;63849;47.546;19.254;2022-11-18T16:34:23;7.50;90.50
51215;DHT22;63849;47.546;19.254;2022-11-18T16:36:51;7.50;90.20
51215;DHT22;63849;47.546;19.254;2022-11-18T16:39:19;7.60;90.30
51215;DHT22;63849;47.546;19.254;2022-11-18T16:41:47;7.50;90.30
51215;DHT22;63849;47.546;19.254;2022-11-18T16:44:15;7.60;90.50
51215;DHT22;63849;47.546;19.254;2022-11-18T16:46:46;7.60;90.70
51215;DHT22;63849;47.546;19.254;2022-11-18T16:49:13;7.50;90.40
51215;DHT22;63849;47.546;19.254;2022-11-18T16:51:41;7.50;90.40
51215;DHT22;63849;47.546;19.254;2022-11-18T16:54:12;7.60;90.50
51215;DHT22;63849;47.546;19.254;2022-11-18T16:56:40;7.60;90.30
51215;DHT22;63849;47.546;19.254;2022-11-18T16:59:11;7.60;90.10
51215;DHT22;63849;47.546;19.254;2022-11-18T17:01:37;7.60;90.30
51215;DHT22;63849;47.546;19.254;2022-11-18T17:04:03;7.60;90.40
51215;DHT22;63849;47.546;19.254;2022-11-18T17:06:30;7.60;90.50
51215;DHT22;63849;47.546;19.254;2022-11-18T17:08:57;7.60;90.50
51215;DHT22;63849;47.546;19.254;2022-11-18T17:11:23;7.60;90.50
51215;DHT22;63849;47.546;19.254;2022-11-18T17:13:49;7.60;90.40
51215;DHT22;63849;47.546;19.254;2022-11-18T17:16:20;7.60;90.40
51215;DHT22;63849;47.546;19.254;2022-11-18T17:18:46;7.70;90.50
51215;DHT22;63849;47.546;19.254;2022-11-18T17:21:17;7.60;90.40
51215;DHT22;63849;47.546;19.254;2022-11-18T17:23:46;7.60;90.60